Middlebranch, Ohio
Current Conditions -  °F | °C
As of 3:51 PM on Tuesday 27 Jan 2015 (Local Time) from KCAK Reporting Station
Light Snow Light Snow  
Wind Chill:   Ceiling: 2000
Heat Index: 20°   Visibility: 6mi
Dew Point: 11°   Wind: 12mph
Humidity: 68%   Direction: 360°N
Pressure: 30.03"   Gusts: NA
Location:  40.89°N, 81.33°W
Report Text: KCAK 272051Z 36010KT 6SM -SN OVC020 M07/M12 A3003 RMK AO2 SLP190 P0000 60000 T10671117 53015 $
Loading
Personal Weather Stations






























Interactive Weather Map New forecast layout! Learn more

10-Day Weather Forecast

Advertisements
Track Severe Weather on mobile